createdAt,value
2023-03-17T00:00:18.276Z,58.675694
2023-03-17T00:05:15.741Z,58.778082
2023-03-17T00:10:16.329Z,58.196552
2023-03-17T00:15:16.324Z,58.923810
2023-03-17T00:20:16.187Z,59.634028
2023-03-17T00:25:16.059Z,59.388194
2023-03-17T00:30:15.769Z,59.378621
2023-03-17T00:35:16.208Z,60.146528
2023-03-17T00:40:18.000Z,60.451748
2023-03-17T00:45:16.155Z,61.481944
2023-03-17T00:50:17.600Z,61.894406
2023-03-17T00:55:15.847Z,62.630769
2023-03-17T01:00:17.202Z,63.073239
2023-03-17T01:05:16.629Z,62.773427
2023-03-17T01:10:15.977Z,62.836364
2023-03-17T01:15:15.730Z,63.034532
2023-03-17T01:20:17.865Z,63.768085
2023-03-17T01:25:16.594Z,63.873381
2023-03-17T01:30:16.450Z,64.184173
2023-03-17T01:35:16.651Z,65.023741
2023-03-17T01:40:16.449Z,65.337857
2023-03-17T01:45:16.778Z,65.685000
2023-03-17T01:50:16.863Z,66.139568
2023-03-17T01:55:15.683Z,66.067606
2023-03-17T02:00:15.601Z,66.477143
2023-03-17T02:05:16.102Z,66.531655
2023-03-17T02:10:16.466Z,66.088571
2023-03-17T02:15:15.795Z,66.435971
2023-03-17T02:20:16.853Z,66.399291
2023-03-17T02:25:16.984Z,66.676978
2023-03-17T02:30:17.303Z,66.910714
2023-03-17T02:35:16.443Z,66.161268
2023-03-17T02:40:16.807Z,66.404930
2023-03-17T02:45:15.843Z,66.347183
2023-03-17T02:50:17.075Z,67.618310
2023-03-17T02:55:16.512Z,67.094326
2023-03-17T03:00:15.975Z,67.178014
2023-03-17T03:05:16.853Z,67.233099
2023-03-17T03:10:16.149Z,66.824476
2023-03-17T03:15:16.218Z,66.800704
2023-03-17T03:20:20.619Z,68.011888
2023-03-17T03:25:15.683Z,68.923404
2023-03-17T03:30:15.615Z,70.741844
2023-03-17T03:35:16.550Z,72.677143
2023-03-17T03:40:16.841Z,72.884397
2023-03-17T03:45:16.885Z,71.539437
2023-03-17T03:50:15.672Z,71.225532
2023-03-17T03:55:15.969Z,71.108511
2023-03-17T04:00:16.745Z,70.651049
2023-03-17T04:05:15.847Z,70.608392
2023-03-17T04:10:17.825Z,70.439161
2023-03-17T04:15:16.817Z,69.790845
2023-03-17T04:20:17.262Z,69.409790
2023-03-17T04:25:21.048Z,69.638194
2023-03-17T04:30:16.437Z,69.411806
2023-03-17T04:35:16.544Z,69.103497
2023-03-17T04:40:16.186Z,69.213287
2023-03-17T04:45:16.123Z,69.074825
2023-03-17T04:50:16.250Z,69.379861
2023-03-17T04:55:16.278Z,69.095139
2023-03-17T05:00:16.327Z,68.759441
2023-03-17T05:05:16.171Z,68.934965
2023-03-17T05:10:18.301Z,68.713793
2023-03-17T05:15:15.494Z,68.406207
2023-03-17T05:20:22.403Z,68.574126
2023-03-17T05:25:16.127Z,68.516667
2023-03-17T05:30:17.429Z,68.398601
2023-03-17T05:35:17.106Z,68.493007
2023-03-17T05:40:17.795Z,68.588276
2023-03-17T05:45:15.824Z,68.584932
2023-03-17T05:50:16.715Z,68.560690
2023-03-17T05:55:18.794Z,68.791837
2023-03-17T06:00:16.373Z,69.035811
2023-03-17T06:05:16.322Z,69.095205
2023-03-17T06:10:17.954Z,69.249660
2023-03-17T06:15:15.908Z,69.670270
2023-03-17T06:20:16.750Z,69.974830
2023-03-17T06:25:18.648Z,70.369595
2023-03-17T06:30:15.713Z,70.964865
2023-03-17T06:35:16.956Z,71.400000
2023-03-17T06:40:16.159Z,72.063087
2023-03-17T06:45:16.539Z,72.123810
2023-03-17T06:50:16.094Z,72.419463
2023-03-17T06:55:15.749Z,72.760811
2023-03-17T07:00:15.889Z,73.022297
2023-03-17T07:05:17.174Z,73.543537
2023-03-17T07:10:16.315Z,74.031724
2023-03-17T07:15:16.587Z,74.343056
2023-03-17T07:20:16.154Z,74.902778
2023-03-17T07:25:16.134Z,75.708276
2023-03-17T07:30:16.028Z,75.952055
2023-03-17T07:35:16.888Z,76.176027
2023-03-17T07:40:17.485Z,76.201351
2023-03-17T07:45:15.949Z,76.656552
2023-03-17T07:50:16.252Z,77.405594
2023-03-17T07:55:17.269Z,77.609028
2023-03-17T08:00:15.711Z,77.654483
2023-03-17T08:05:17.827Z,77.633562
2023-03-17T08:10:16.020Z,77.408219
2023-03-17T08:15:16.924Z,77.137241
2023-03-17T08:20:16.357Z,77.330556
2023-03-17T08:25:16.083Z,77.638621
2023-03-17T08:30:16.331Z,77.988966
2023-03-17T08:35:16.849Z,78.196599
2023-03-17T08:40:16.072Z,78.412500
2023-03-17T08:45:17.366Z,78.334483
2023-03-17T08:50:16.404Z,78.304795
2023-03-17T08:55:16.488Z,77.915862
2023-03-17T09:00:15.760Z,77.776389
2023-03-17T09:05:17.073Z,77.961806
2023-03-17T09:10:16.528Z,78.270629
2023-03-17T09:15:17.442Z,78.375862
2023-03-17T09:20:16.093Z,78.492958
2023-03-17T09:25:15.957Z,78.284507
2023-03-17T09:30:16.612Z,78.344366
2023-03-17T09:35:16.908Z,78.280282
2023-03-17T09:40:16.317Z,78.385211
2023-03-17T09:45:15.695Z,78.026761
2023-03-17T09:50:16.604Z,78.631915
2023-03-17T09:55:15.994Z,78.913475
2023-03-17T10:00:16.442Z,79.181429
2023-03-17T10:05:16.343Z,79.059155
2023-03-17T10:10:15.841Z,79.409220
2023-03-17T10:15:16.352Z,79.790141
2023-03-17T10:20:16.256Z,80.137857
2023-03-17T10:25:16.365Z,80.475177
2023-03-17T10:30:15.538Z,80.717361
2023-03-17T10:35:16.765Z,80.630496
2023-03-17T10:40:17.601Z,80.860284
2023-03-17T10:45:15.937Z,80.870213
2023-03-17T10:50:17.357Z,80.456738
2023-03-17T10:55:16.411Z,80.159441
2023-03-17T11:00:15.731Z,80.420280
2023-03-17T11:05:17.246Z,80.817606
2023-03-17T11:10:16.707Z,80.487943
2023-03-17T11:15:21.923Z,80.518182
2023-03-17T11:20:16.602Z,79.928873
2023-03-17T11:25:16.346Z,80.221678
2023-03-17T11:30:15.888Z,80.695745
2023-03-17T11:35:16.562Z,80.851389
2023-03-17T11:40:16.032Z,81.465517
2023-03-17T11:45:16.329Z,81.410274
2023-03-17T11:50:16.181Z,81.433793
2023-03-17T11:55:16.152Z,81.175694
2023-03-17T12:00:17.517Z,81.164828
2023-03-17T12:05:17.055Z,80.223776
2023-03-17T12:10:17.678Z,80.906338
2023-03-17T12:15:17.331Z,80.355172
2023-03-17T12:20:15.865Z,80.489510
2023-03-17T12:25:15.821Z,80.336806
2023-03-17T12:30:17.605Z,80.811888
2023-03-17T12:35:17.191Z,81.324476
2023-03-17T12:40:17.144Z,82.836806
2023-03-17T12:45:17.525Z,82.743750
2023-03-17T12:50:16.242Z,82.252055
2023-03-17T12:55:17.410Z,82.397241
2023-03-17T13:00:17.558Z,83.538356
2023-03-17T13:05:16.751Z,84.319595
2023-03-17T13:10:16.110Z,84.022148
2023-03-17T13:15:15.686Z,83.417687
2023-03-17T13:20:17.162Z,82.960000
2023-03-17T13:25:15.893Z,82.990476
2023-03-17T13:30:15.754Z,82.335135
2023-03-17T13:35:16.367Z,81.783333
2023-03-17T13:40:15.933Z,81.969231
2023-03-17T13:45:16.114Z,82.202797
2023-03-17T13:50:15.983Z,81.559155
2023-03-17T13:55:17.626Z,81.548966
2023-03-17T14:00:17.285Z,82.835915
2023-03-17T14:05:16.339Z,83.804895
2023-03-17T14:10:16.649Z,83.725352
2023-03-17T14:15:16.273Z,83.328472
2023-03-17T14:20:20.517Z,83.356552
2023-03-17T14:25:16.604Z,83.118750
2023-03-17T14:30:16.244Z,82.875000
2023-03-17T14:35:15.981Z,82.804082
2023-03-17T14:40:16.305Z,82.735374
2023-03-17T14:45:16.408Z,82.738194
2023-03-17T14:50:15.883Z,83.174658
2023-03-17T14:55:15.675Z,82.318750
2023-03-17T15:00:16.457Z,82.577241
2023-03-17T15:05:15.645Z,82.238621
2023-03-17T15:10:16.451Z,80.622535
2023-03-17T15:15:16.357Z,81.317931
2023-03-17T15:20:16.184Z,78.802759
2023-03-17T15:25:17.250Z,75.198621
2023-03-17T15:30:15.579Z,74.541379
2023-03-17T15:35:20.944Z,73.662069
2023-03-17T15:40:16.603Z,73.341958
2023-03-17T15:45:20.954Z,73.526573
2023-03-17T15:50:16.055Z,73.301399
2023-03-17T15:55:15.995Z,72.505594
2023-03-17T16:00:15.990Z,71.660140
2023-03-17T16:05:15.873Z,70.406294
2023-03-17T16:10:16.391Z,69.313380
2023-03-17T16:15:23.147Z,69.440426
2023-03-17T16:20:16.883Z,69.660140
2023-03-17T16:25:16.488Z,69.218881
2023-03-17T16:30:16.073Z,69.217931
2023-03-17T16:35:16.488Z,68.899306
2023-03-17T16:40:15.872Z,68.455944
2023-03-17T16:45:16.406Z,68.202837
2023-03-17T16:50:16.609Z,67.165217
2023-03-17T16:55:16.155Z,66.825000
2023-03-17T17:00:16.996Z,65.945588
2023-03-17T17:05:15.766Z,66.015108
2023-03-17T17:10:16.022Z,66.030714
2023-03-17T17:15:16.704Z,65.478472
2023-03-17T17:20:15.544Z,64.616438
2023-03-17T17:25:16.367Z,64.092361
2023-03-17T17:30:15.676Z,64.227586
2023-03-17T17:35:17.873Z,64.676923
2023-03-17T17:40:15.844Z,64.247183
2023-03-17T17:45:16.128Z,63.737931
2023-03-17T17:50:16.448Z,61.346897
2023-03-17T17:55:16.076Z,60.997917
2023-03-17T18:00:16.881Z,59.735172
2023-03-17T18:05:15.625Z,59.951034
2023-03-17T18:10:16.356Z,60.426027
2023-03-17T18:15:16.184Z,60.016779
2023-03-17T18:20:15.995Z,59.592466
2023-03-17T18:25:15.817Z,59.969178
2023-03-17T18:30:16.217Z,60.650000
2023-03-17T18:35:16.217Z,60.721918
2023-03-17T18:40:32.150Z,60.965517
2023-03-17T18:45:15.731Z,59.456552
2023-03-17T18:50:17.367Z,57.671918
2023-03-17T18:55:15.779Z,56.796552
2023-03-17T19:00:16.312Z,55.756849
2023-03-17T19:05:15.929Z,54.038514
2023-03-17T19:10:16.029Z,52.969128
2023-03-17T19:15:15.544Z,51.449664
2023-03-17T19:20:16.406Z,50.325000
2023-03-17T19:25:16.281Z,49.688514
2023-03-17T19:30:15.682Z,48.623649
2023-03-17T19:35:15.830Z,47.854054
2023-03-17T19:40:16.410Z,46.578231
2023-03-17T19:45:16.342Z,45.503401
2023-03-17T19:50:16.447Z,45.047586
2023-03-17T19:55:16.691Z,44.407483
2023-03-17T20:00:16.851Z,43.878082
2023-03-17T20:05:17.163Z,44.109790
2023-03-17T20:10:15.860Z,43.934722
2023-03-17T20:15:16.234Z,42.858451
2023-03-17T20:20:16.850Z,43.404167
2023-03-17T20:25:16.217Z,42.856849
2023-03-17T20:30:17.612Z,42.509722
2023-03-17T20:35:16.517Z,42.479720
2023-03-17T20:40:15.929Z,42.536111
2023-03-17T20:50:16.036Z,42.077241
2023-03-17T21:00:16.952Z,42.101370
2023-03-17T21:05:15.669Z,41.658621
2023-03-17T21:10:18.239Z,42.243357
2023-03-17T21:15:16.850Z,43.088194
2023-03-17T21:20:16.185Z,42.476761
2023-03-17T21:25:15.711Z,41.522535
2023-03-17T21:30:16.094Z,40.856338
2023-03-17T21:45:16.194Z,40.212414
2023-03-17T21:50:17.624Z,40.122222
2023-03-17T21:55:15.715Z,39.602083
2023-03-17T22:00:16.275Z,39.561111
2023-03-17T22:05:15.599Z,39.161806
2023-03-17T22:10:16.012Z,39.142466
2023-03-17T22:15:16.085Z,38.953103
2023-03-17T22:20:16.658Z,38.708451
2023-03-17T22:25:15.719Z,38.503521
2023-03-17T22:30:15.757Z,37.167586
2023-03-17T22:35:16.316Z,37.674126
2023-03-17T22:40:16.280Z,35.709091
2023-03-17T22:45:15.753Z,35.497222
2023-03-17T22:50:15.595Z,36.362069
2023-03-17T22:55:15.986Z,36.520979
2023-03-17T23:00:15.681Z,36.577305
2023-03-17T23:05:15.623Z,36.221831
2023-03-17T23:10:15.879Z,36.773239
2023-03-17T23:15:16.119Z,36.510714
2023-03-17T23:20:16.005Z,36.790000
2023-03-17T23:25:16.097Z,36.014894
2023-03-17T23:30:15.925Z,35.766197
2023-03-17T23:35:15.872Z,35.714789
2023-03-17T23:40:15.988Z,35.692254
2023-03-17T23:45:16.625Z,34.999296
2023-03-17T23:50:16.445Z,35.216901
2023-03-17T23:55:16.066Z,35.910490
